Latest Weather Observations for Dubbo

IDN60801

Issued at 12:02 pm EST Friday 29 May 2015 (issued every 30 minutes, with the page automatically refreshed every 10 minutes)

About weather observations | Map of weather stations | Latest weather observations for NSW | Other Formats
Station Details ID: 065070 Name: DUBBO AIRPORT AWS Lat: -32.22 Lon: 148.58 Height: 284.0 m
Data from the previous 72 hours. | See also: Recent months at Dubbo
Date/Time
EST
Temp
°C
App
Temp
°C
Dew
Point
Rel
Hum
%
Delta-T
°C
Wind Press
QNH
hPa
Press
MSL
hPa
Rain
since 9 am
mm
Dir
 
Spd
km/h
Gust
km/h
Spd
kts
Gust
kts
29/12:00pm 16.0 15.3 14.2 89 1.0 WSW 11 15 6 8 1023.2 1023.1 0.0
29/11:30am 16.1 15.9 14.8 92 0.8 W 9 13 5 7 1023.2 1023.1 0.0
29/11:00am 15.7 14.7 14.6 93 0.6 WNW 13 15 7 8 1023.7 1023.5 0.0
29/10:30am 15.4 14.6 15.2 99 0.1 NW 13 17 7 9 1024.0 1023.9 0.0
29/10:00am 15.1 13.9 15.1 100 0.0 NNW 15 19 8 10 1024.0 1023.9 0.0
29/09:30am 14.7 13.7 14.7 100 0.0 NNW 13 17 7 9 1024.0 1023.9 0.0
29/09:00am 14.3 13.6 14.3 100 0.0 NNW 11 15 6 8 1024.3 1024.2 5.0
29/08:46am 14.0 13.2 14.0 100 0.0 NNW 11 13 6 7 1024.2 1024.1 5.0
29/08:30am 13.6 13.0 13.6 100 0.0 N 9 15 5 8 1024.0 1023.9 4.8
29/08:00am 13.4 12.4 13.4 100 0.0 N 11 13 6 7 1023.7 1023.5 4.6
29/07:47am 13.3 12.6 13.3 100 0.0 N 9 11 5 6 1023.5 1023.3 4.4
29/07:30am 13.1 12.9 13.1 100 0.0 N 6 7 3 4 1023.7 1023.5 4.2
29/07:00am 12.9 11.7 12.9 100 0.0 N 11 11 6 6 1023.1 1023.0 3.8
29/06:30am 13.2 12.5 13.2 100 0.0 N 9 9 5 5 1023.0 1022.9 3.4
29/06:27am 13.2 12.5 13.2 100 0.0 N 9 9 5 5 1023.0 1022.9 3.4
29/06:00am 13.5 13.3 13.5 100 0.0 WNW 7 9 4 5 1023.1 1023.0 3.0
29/05:30am 13.5 13.3 13.5 100 0.0 WNW 7 11 4 6 1022.6 1022.5 2.6
29/05:09am 13.5 12.5 13.5 100 0.0 WSW 11 13 6 7 1022.6 1022.5 2.4
29/05:00am 13.4 12.4 13.4 100 0.0 WSW 11 13 6 7 1022.7 1022.6 2.2
29/04:30am 13.6 12.5 13.1 97 0.3 WNW 11 13 6 7 1022.2 1022.1 1.8
29/04:00am 13.7 12.2 13.1 96 0.3 NW 13 19 7 10 1021.5 1021.4 1.8
29/03:30am 13.8 11.5 13.0 95 0.4 NNW 17 22 9 12 1021.8 1021.7 1.6
29/03:00am 14.1 11.7 12.8 92 0.7 NNW 17 22 9 12 1022.1 1022.0 1.4
29/02:30am 14.2 12.1 12.4 89 1.0 NNW 15 20 8 11 1022.0 1021.9 1.2
29/02:00am 14.6 12.9 12.5 87 1.2 NW 13 17 7 9 1022.3 1022.2 1.2
29/01:30am 14.5 12.1 12.5 88 1.1 N 17 22 9 12 1021.9 1021.8 1.0
29/01:00am 14.2 11.6 12.1 87 1.1 N 17 20 9 11 1021.8 1021.7 1.0
29/12:30am 14.5 14.0 12.5 88 1.1 ENE 7 9 4 5 1022.2 1022.1 1.0
29/12:00am 13.9 13.1 12.8 93 0.6 ESE 9 9 5 5 1022.2 1022.1 1.0
 
Date/Time
EST
Temp
°C
App
Temp
°C
Dew
Point
Rel
Hum
%
Delta-T
°C
Wind Press
QNH
hPa
Press
MSL
hPa
Rain
since 9 am
mm
Dir
 
Spd
km/h
Gust
km/h
Spd
kts
Gust
kts
28/11:30pm 13.2 12.0 11.6 90 0.9 ESE 9 11 5 6 1022.2 1022.1 1.0
28/11:00pm 14.0 13.7 12.6 91 0.8 E 6 7 3 4 1022.3 1022.2 1.0
28/10:30pm 13.8 12.9 12.7 93 0.6 E 9 11 5 6 1022.3 1022.2 1.0
28/10:00pm 13.9 13.1 12.8 93 0.6 ESE 9 11 5 6 1022.5 1022.4 1.0
28/09:30pm 14.5 14.6 12.7 89 1.0 E 4 6 2 3 1022.8 1022.7 0.6
28/09:00pm 14.2 13.4 12.9 92 0.7 ENE 9 9 5 5 1022.7 1022.6 0.4
28/08:30pm 13.9 13.4 12.6 92 0.7 ENE 7 9 4 5 1022.5 1022.4 0.4
28/08:00pm 13.7 12.6 12.1 90 0.9 ENE 9 11 5 6 1022.5 1022.4 0.4
28/07:30pm 14.6 14.1 12.8 89 1.0 ENE 7 9 4 5 1022.5 1022.4 0.4
28/07:00pm 14.7 14.4 12.6 87 1.2 NNE 6 7 3 4 1022.5 1022.4 0.4
28/06:30pm 15.5 14.6 12.6 83 1.6 N 9 11 5 6 1022.3 1022.2 0.0
28/06:00pm 15.4 14.0 12.2 81 1.8 NNE 11 11 6 6 1022.1 1022.0 0.0
28/05:30pm 15.7 15.1 12.3 80 1.9 N 7 9 4 5 1022.1 1022.0 0.0
28/05:00pm 16.3 15.2 12.1 76 2.3 NNW 9 11 5 6 1021.9 1021.8 0.0
28/04:30pm 17.0 15.1 11.9 72 2.8 NNW 13 17 7 9 1021.9 1021.8 0.0
28/04:00pm 17.6 16.2 12.1 70 3.1 NNW 11 15 6 8 1022.2 1022.1 0.0
28/03:30pm 17.7 14.4 11.7 68 3.3 NNW 20 24 11 13 1021.9 1021.8 0.0
28/03:00pm 18.2 15.3 12.2 68 3.4 NNW 19 20 10 11 1021.8 1021.7 0.0
28/02:30pm 18.4 15.6 12.6 69 3.3 N 19 26 10 14 1021.8 1021.7 0.0
28/02:00pm 17.6 15.5 12.3 71 3.0 NNW 15 19 8 10 1022.0 1021.9 0.0
28/01:30pm 17.3 16.1 12.8 75 2.5 NNW 11 13 6 7 1022.5 1022.4 0.0
28/01:00pm 17.4 15.8 12.7 74 2.6 NNW 13 17 7 9 1022.8 1022.7 0.0
28/12:30pm 17.1 16.3 12.8 76 2.4 NNW 9 13 5 7 1023.2 1023.1 0.0
28/12:00pm 17.2 15.6 12.9 76 2.4 NNW 13 17 7 9 1023.8 1023.7 0.0
28/11:30am 16.7 16.4 12.7 77 2.2 NNE 6 7 3 4 1024.0 1023.9 0.0
28/11:00am 16.0 15.8 13.1 83 1.6 E 6 9 3 5 1024.4 1024.3 0.0
28/10:30am 15.3 14.8 12.8 85 1.4 E 7 11 4 6 1024.7 1024.6 0.0
28/10:00am 14.7 14.2 12.7 88 1.1 E 7 9 4 5 1024.9 1024.8 0.0
28/09:30am 14.2 13.3 12.6 90 0.9 E 9 11 5 6 1025.0 1024.9 0.0
28/09:00am 13.3 12.7 12.2 93 0.6 E 7 9 4 5 1024.8 1024.7 0.0
28/08:30am 12.6 11.5 11.8 95 0.4 ESE 9 11 5 6 1024.2 1024.1 0.0
28/08:00am 11.9 10.3 11.4 97 0.3 SSE 11 13 6 7 1024.0 1023.9 0.0
28/07:30am 11.7 10.0 11.2 97 0.3 SE 11 13 6 7 1023.8 1023.7 0.0
28/07:00am 11.7 10.8 11.2 97 0.3 SSE 7 9 4 5 1023.7 1023.5 0.0
28/06:30am 11.5 10.1 11.0 97 0.3 SE 9 11 5 6 1023.4 1023.2 0.0
28/06:00am 11.3 10.2 10.5 95 0.4 ESE 7 9 4 5 1023.1 1023.0 0.0
28/05:30am 11.6 10.2 10.8 95 0.4 SE 9 11 5 6 1023.0 1022.9 0.0
28/05:00am 11.7 10.3 10.8 94 0.5 SE 9 11 5 6 1022.9 1022.8 0.0
28/04:30am 11.7 10.3 10.8 94 0.5 SE 9 11 5 6 1022.8 1022.7 0.0
28/04:00am 11.9 10.4 10.6 92 0.7 SE 9 9 5 5 1023.0 1022.9 0.0
28/03:30am 11.8 10.6 10.4 91 0.7 SSE 7 9 4 5 1023.0 1022.9 0.0
28/03:00am 12.2 11.0 10.4 89 0.9 SE 7 9 4 5 1023.1 1023.0 0.0
28/02:30am 12.0 10.9 10.6 91 0.7 ESE 7 9 4 5 1023.1 1023.0 0.0
28/02:00am 12.1 10.9 10.3 89 0.9 E 7 9 4 5 1023.2 1023.1 0.0
28/01:30am 12.0 11.0 10.4 90 0.8 E 6 7 3 4 1023.4 1023.2 0.0
28/01:00am 11.7 10.1 10.3 91 0.7 SE 9 13 5 7 1023.4 1023.2 0.0
28/12:30am 11.9 10.3 10.3 90 0.8 SE 9 9 5 5 1023.6 1023.4 0.0
28/12:00am 11.5 9.8 9.9 90 0.8 SSE 9 11 5 6 1023.8 1023.7 0.0
 
Date/Time
EST
Temp
°C
App
Temp
°C
Dew
Point
Rel
Hum
%
Delta-T
°C
Wind Press
QNH
hPa
Press
MSL
hPa
Rain
since 9 am
mm
Dir
 
Spd
km/h
Gust
km/h
Spd
kts
Gust
kts
27/11:30pm 11.5 9.1 9.9 90 0.8 SSE 13 15 7 8 1023.8 1023.7 0.0
27/11:00pm 11.6 9.8 9.5 87 1.1 ESE 9 9 5 5 1024.0 1023.9 0.0
27/10:30pm 12.1 10.6 10.5 90 0.8 SE 9 9 5 5 1023.7 1023.5 0.0
27/10:00pm 11.9 12.0 10.0 88 1.0 CALM 0 6 0 3 1023.9 1023.8 0.0
27/09:30pm 11.5 9.6 9.2 86 1.2 ESE 9 11 5 6 1023.8 1023.7 0.0
27/09:00pm 12.5 10.8 10.0 85 1.3 ESE 9 11 5 6 1023.9 1023.8 0.0
27/08:30pm 12.6 11.0 10.3 86 1.2 E 9 9 5 5 1023.9 1023.8 0.0
27/08:00pm 12.7 11.7 10.4 86 1.2 ESE 6 6 3 3 1024.1 1024.0 0.0
27/07:30pm 12.4 11.0 9.6 83 1.4 ESE 7 9 4 5 1023.9 1023.8 0.0
27/07:00pm 13.4 11.9 10.6 83 1.5 SE 9 9 5 5 1023.8 1023.7 0.0
27/06:30pm 13.7 12.6 10.5 81 1.7 SE 7 9 4 5 1023.7 1023.5 0.0
27/06:00pm 13.9 12.7 10.3 79 1.9 S 7 7 4 4 1023.5 1023.3 0.0
27/05:30pm 14.0 12.8 10.2 78 2.0 SE 7 9 4 5 1023.4 1023.2 0.0
27/05:00pm 14.6 13.6 10.4 76 2.2 S 6 7 3 4 1023.2 1023.1 0.0
27/04:30pm 15.3 14.2 10.7 74 2.5 S 7 7 4 4 1023.1 1023.0 0.0
27/04:00pm 16.1 16.2 10.0 67 3.2 CALM 0 0 0 0 1022.8 1022.7 0.0
27/03:30pm 16.2 15.1 9.8 66 3.4 SE 6 7 3 4 1023.1 1023.0 0.0
27/03:00pm 16.5 15.3 9.4 63 3.7 SE 6 9 3 5 1023.2 1023.1 0.0
27/02:30pm 16.4 15.5 9.3 63 3.7 NNE 4 9 2 5 1023.4 1023.2 0.0
27/02:00pm 16.6 16.0 8.8 60 4.0 NNW 2 7 1 4 1023.6 1023.4 0.0
27/01:30pm 16.7 16.2 9.4 62 3.9 NNW 2 7 1 4 1023.9 1023.8 0.0
27/01:00pm 16.1 15.5 8.8 62 3.8 ENE 2 7 1 4 1024.3 1024.2 0.0
27/12:30pm 15.4 13.3 8.2 62 3.7 SE 9 11 5 6 1024.9 1024.8 0.0
27/12:00pm 15.4 13.4 8.6 64 3.5 SSE 9 13 5 7 1025.5 1025.4 0.0
27/11:30am 14.9 13.4 9.3 69 2.9 SSE 7 13 4 7 1026.2 1026.1 0.0
27/11:00am 13.1 11.7 9.7 80 1.8 SSE 7 11 4 6 1026.2 1026.1 0.0
27/10:30am 12.5 10.8 9.7 83 1.4 SE 9 11 5 6 1026.3 1026.2 0.0
27/10:00am 12.0 10.4 10.1 88 1.0 SE 9 11 5 6 1026.4 1026.3 0.0
27/09:30am 11.0 8.9 9.6 91 0.7 ESE 11 13 6 7 1026.3 1026.2 0.0
27/09:00am 10.5 8.7 9.6 94 0.5 E 9 15 5 8 1026.0 1025.9 0.2
27/08:30am 9.2 6.6 9.2 100 0.0 SE 13 17 7 9 1026.0 1025.9 0.2
27/08:00am 7.8 5.2 7.8 100 0.0 SSE 11 15 6 8 1026.0 1025.9 0.2
27/07:30am 7.0 4.6 7.0 100 0.0 SE 9 13 5 7 1025.2 1025.1 0.2
27/07:00am 5.2 2.4 5.1 99 0.0 SE 9 13 5 7 1025.3 1025.2 0.2
27/06:51am 5.3 2.5 5.2 99 0.0 SSE 9 11 5 6 1025.3 1025.2 0.2
27/06:30am 4.8 1.9 4.7 99 0.0 SSE 9 13 5 7 1025.0 1024.9 0.2
27/06:00am 5.4 1.9 5.3 99 0.0 ESE 13 15 7 8 1024.6 1024.5 0.2
27/05:30am 6.1 3.1 6.0 99 0.0 SE 11 15 6 8 1024.8 1024.7 0.0
27/05:04am 5.9 4.6 5.8 99 0.0 SSE 2 7 1 4 1025.0 1024.9 0.0
27/05:00am 6.1 4.0 6.0 99 0.0 SSE 6 7 3 4 1024.9 1024.8 0.0
27/04:58am 6.1 4.0 6.0 99 0.0 SSE 6 7 3 4 1024.8 1024.7 0.0
27/04:30am 5.2 2.4 5.1 99 0.0 ESE 9 9 5 5 1024.5 1024.4 0.0
27/04:00am 6.8 4.7 6.8 100 0.0 E 7 9 4 5 1024.9 1024.8 0.0
27/03:47am 7.1 4.7 7.1 100 0.0 ESE 9 11 5 6 1024.8 1024.7 0.0
27/03:30am 7.6 4.6 7.6 100 0.0 SE 13 15 7 8 1025.1 1025.0 0.0
27/03:08am 7.9 4.9 7.9 100 0.0 SSE 13 17 7 9 1025.3 1025.2 0.0
27/03:00am 7.7 4.7 7.7 100 0.0 SSE 13 15 7 8 1025.4 1025.3 0.0
27/02:30am 6.5 3.2 6.4 99 0.0 SE 13 15 7 8 1025.2 1025.1 0.0
27/02:00am 6.4 3.5 6.3 99 0.0 SSE 11 15 6 8 1025.6 1025.5 0.0
27/01:30am 7.3 4.9 7.2 99 0.0 SE 9 13 5 7 1025.8 1025.7 0.0
27/01:00am 6.7 4.8 6.6 99 0.0 SSE 6 11 3 6 1026.1 1026.0 0.0
27/12:39am 6.8 4.3 6.7 99 0.0 SSE 9 11 5 6 1025.9 1025.8 0.0
27/12:30am 8.1 6.3 8.0 99 0.0 SSE 7 11 4 6 1025.8 1025.7 0.0
27/12:00am 7.7 5.0 7.3 97 0.2 SE 11 13 6 7 1025.9 1025.8 0.0
 
Date/Time
EST
Temp
°C
App
Temp
°C
Dew
Point
Rel
Hum
%
Delta-T
°C
Wind Press
QNH
hPa
Press
MSL
hPa
Rain
since 9 am
mm
Dir
 
Spd
km/h
Gust
km/h
Spd
kts
Gust
kts
26/11:30pm 9.1 6.8 9.0 99 0.0 SSE 11 15 6 8 1026.2 1026.1 0.0
26/11:15pm 8.9 7.5 8.8 99 0.0 ESE 6 7 3 4 1026.3 1026.2 0.0
26/11:02pm 8.9 7.3 8.8 99 0.0 E 7 7 4 4 1026.3 1026.2 0.0
26/11:00pm 8.9 7.3 8.8 99 0.0 E 7 7 4 4 1026.3 1026.2 0.0
26/10:30pm 9.3 7.1 9.2 99 0.1 SSE 11 13 6 7 1026.4 1026.3 0.0
26/10:00pm 8.9 6.9 8.8 99 0.0 SE 9 11 5 6 1026.5 1026.4 0.0
26/09:30pm 7.6 5.2 6.9 95 0.3 S 9 11 5 6 1026.6 1026.5 0.0
26/09:00pm 8.2 5.8 7.1 93 0.5 NE 9 13 5 7 1026.5 1026.4 0.0
26/08:30pm 9.5 8.4 8.6 94 0.4 ENE 4 7 2 4 1026.8 1026.8 0.0
26/08:00pm 10.4 10.2 9.0 91 0.7 CALM 0 6 0 3 1026.8 1026.8 0.0
26/07:30pm 10.6 9.2 9.5 93 0.6 SE 7 9 4 5 1026.8 1026.8 0.0
26/07:00pm 9.4 7.6 7.8 90 0.8 SE 7 9 4 5 1026.8 1026.8 0.0
26/06:30pm 9.9 8.1 8.0 88 0.9 SSE 7 7 4 4 1027.1 1027.0 0.0
26/06:00pm 11.1 9.7 8.7 85 1.2 SSE 6 7 3 4 1026.6 1026.5 0.0
26/05:30pm 11.6 9.6 8.8 83 1.4 SE 9 11 5 6 1026.5 1026.4 0.0
26/05:00pm 12.9 12.4 9.2 78 1.9 SSE 2 7 1 4 1026.6 1026.5 0.0
26/04:30pm 13.9 13.9 9.7 76 2.2 CALM 0 0 0 0 1026.4 1026.3 0.0
26/04:00pm 14.4 13.9 9.4 72 2.6 SSE 2 6 1 3 1026.3 1026.2 0.0
26/03:30pm 14.5 14.4 9.5 72 2.6 CALM 0 0 0 0 1026.3 1026.2 0.0
26/03:00pm 14.7 14.2 9.5 71 2.7 E 2 7 1 4 1026.5 1026.4 0.0
26/02:30pm 14.6 13.4 9.6 72 2.6 ESE 6 9 3 5 1026.7 1026.7 0.0
26/02:00pm 14.1 12.8 10.1 77 2.1 SE 7 11 4 6 1027.1 1027.0 0.0
26/01:30pm 13.5 12.1 9.6 77 2.0 SSE 7 11 4 6 1027.5 1027.4 0.0
26/01:00pm 13.3 10.8 9.7 79 1.9 SSE 13 15 7 8 1027.6 1027.5 0.0
26/12:30pm 12.6 10.7 9.2 80 1.7 SE 9 11 5 6 1028.4 1028.3 0.0

Other Formats:

Comma delimited format used in spreadsheet applications
http://www.bom.gov.au/fwo/IDN60801/IDN60801.95719.axf

JavaScript Object Notation format (JSON) in row-major order
http://www.bom.gov.au/fwo/IDN60801/IDN60801.95719.json